Latest Coastal Weather Observations for Double Island Point

IDQ60701

Issued at 7:25 am EST Friday 18 April 2014 (issued every 10 minutes, with the page automatically refreshed every 10 minutes)

About coastal observations | Map of coastal stations | Coastal observations for QLD | Marine services | Other Formats
Station Details ID: 040068 Name: DOUBLE ISLAND POINT LIGHTHOUSE Lat: -25.93 Lon: 153.19 Height: 95.64 m
Data from the previous 72 hours. | See also: Recent months at Double Island Point
Date/Time
EST
Temp

°C
Wind Pressure Rain
since 9am
mm
Weather Cloud Vis
km
Sea
Height
m
Swell
Dir
 
Speed
knots
Gust
knots
hPa Trend Height
m
Period
s
Dir
18/07:00am 21.2 WNW 5 6 1016.6 - 0.0 - - - - - - -
18/06:30am 20.9 NW 3 4 1016.5 - 0.0 - - - - - - -
18/06:00am 20.9 WNW 5 7 1016.0 - 0.0 - - - - - - -
18/05:30am 21.0 NW 5 6 1016.3 - 0.0 - - - - - - -
18/05:00am 21.1 CALM 0 0 1016.3 - 0.0 - - - - - - -
18/04:30am 20.9 W 3 5 1016.2 - 0.0 - - - - - - -
18/04:00am 21.0 WNW 6 7 1016.0 - 0.0 - - - - - - -
18/03:30am 21.1 W 6 7 1015.9 - 0.0 - - - - - - -
18/03:00am 21.2 W 5 7 1015.5 - 0.0 - - - - - - -
18/02:30am 21.4 W 7 7 1016.1 - 0.0 - - - - - - -
18/02:00am 21.5 W 7 7 1016.2 - 0.0 - - - - - - -
18/01:30am 21.4 W 6 7 1016.5 - 0.0 - - - - - - -
18/01:00am 21.4 W 7 8 1016.7 - 0.0 - - - - - - -
18/12:30am 21.7 W 6 8 1017.0 - 0.0 - - - - - - -
18/12:00am 21.8 WNW 8 9 1016.7 - 0.0 - - - - - - -
 
Date/Time
EST
Temp

°C
Wind Pressure Rain
since 9am
mm
Weather Cloud Vis
km
Sea
Height
m
Swell
Dir
 
Speed
knots
Gust
knots
hPa Trend Height
m
Period
s
Dir
17/11:30pm 22.0 N 2 4 1017.3 - 0.0 - - - - - - -
17/11:00pm 21.8 NNE 5 8 1017.4 - 0.0 - - - - - - -
17/10:30pm 21.8 NNE 5 7 1017.4 - 0.0 - - - - - - -
17/10:00pm 21.9 N 6 7 1017.5 - 0.0 - - - - - - -
17/09:30pm 22.0 NE 4 6 1017.6 - 0.0 - - - - - - -
17/09:00pm 22.2 ENE 6 7 1017.2 - 0.0 - - - - - - -
17/08:30pm 22.2 ENE 5 7 1017.3 - 0.0 - - - - - - -
17/08:00pm 22.2 E 8 9 1017.1 - 0.0 - - - - - - -
17/07:30pm 22.1 E 8 11 1016.7 - 0.0 - - - - - - -
17/07:00pm 22.0 E 8 10 1016.3 - 0.0 - - - - - - -
17/06:30pm 22.0 E 7 10 1016.0 - 0.0 - - - - - - -
17/06:00pm 22.1 E 8 10 1015.4 - 0.0 - - - - - - -
17/05:30pm 22.2 ESE 8 10 1015.6 - 0.0 - - - - - - -
17/05:00pm 22.8 ESE 9 11 1015.5 - 0.0 - - - - - - -
17/04:30pm 22.8 ESE 10 13 1015.2 - 0.0 - - - - - - -
17/04:00pm 23.3 ESE 11 14 1014.9 - 0.0 - - - - - - -
17/03:30pm 23.6 ESE 11 14 1015.0 - 0.0 - - - - - - -
17/03:00pm 24.0 ESE 12 14 1014.4 - 0.0 - - - - - - -
17/02:30pm 24.6 E 9 11 1015.1 - 0.0 - - - - - - -
17/02:00pm 24.5 E 10 12 1015.1 - 0.0 - - - - - - -
17/01:30pm 24.4 ESE 10 12 1015.4 - 0.0 - - - - - - -
17/01:00pm 24.6 ESE 9 11 1015.9 - 0.0 - - - - - - -
17/12:30pm 24.1 SE 10 12 1016.3 - 0.0 - - - - - - -
17/12:00pm 23.9 SSE 11 12 1016.4 - 0.0 - - - - - - -
17/11:30am 23.9 SSE 11 13 1017.2 - 0.0 - - - - - - -
17/11:00am 23.6 SSE 10 13 1017.6 - 0.0 - - - - - - -
17/10:30am 23.6 SSE 10 13 1017.9 - 0.0 - - - - - - -
17/10:00am 23.2 SSE 9 13 1018.0 - 0.0 - - - - - - -
17/09:30am 22.9 S 10 13 1018.1 - 0.0 - - - - - - -
17/09:00am 22.6 S 11 13 1017.8 - 0.0 - - - - - - -
17/08:30am 22.2 SSE 11 13 1018.1 - 0.0 - - - - - - -
17/08:00am 21.6 S 12 15 1017.8 - 0.0 - - - - - - -
17/07:30am 21.1 S 12 14 1017.6 - 0.0 - - - - - - -
17/07:00am 20.4 S 11 13 1017.3 - 0.0 - - - - - - -
17/06:30am 19.8 S 11 14 1017.0 - 0.0 - - - - - - -
17/06:00am 19.7 S 12 14 1016.4 - 0.0 - - - - - - -
17/05:30am 19.6 SSW 13 15 1016.5 - 0.0 - - - - - - -
17/05:00am 19.8 S 12 16 1016.1 - 0.0 - - - - - - -
17/04:30am 19.9 S 13 15 1015.9 - 0.0 - - - - - - -
17/04:00am 20.3 S 13 15 1015.6 - 0.0 - - - - - - -
17/03:30am 20.9 SSW 9 11 1015.5 - 0.0 - - - - - - -
17/03:00am 21.3 SSW 7 9 1015.3 - 0.0 - - - - - - -
17/02:30am 21.9 SSE 10 13 1015.6 - 0.0 - - - - - - -
17/02:00am 22.0 SSE 11 14 1015.5 - 0.0 - - - - - - -
17/01:30am 22.0 SE 12 15 1015.7 - 0.0 - - - - - - -
17/01:00am 22.0 SE 12 14 1016.0 - 0.0 - - - - - - -
17/12:30am 22.1 SE 13 15 1016.1 - 0.0 - - - - - - -
17/12:00am 22.2 SE 12 15 1016.0 - 0.0 - - - - - - -
 
Date/Time
EST
Temp

°C
Wind Pressure Rain
since 9am
mm
Weather Cloud Vis
km
Sea
Height
m
Swell
Dir
 
Speed
knots
Gust
knots
hPa Trend Height
m
Period
s
Dir
16/11:30pm 22.2 SE 11 13 1016.3 - 0.0 - - - - - - -
16/11:00pm 22.3 SE 12 15 1016.2 - 0.0 - - - - - - -
16/10:30pm 22.1 SE 13 15 1016.4 - 0.0 - - - - - - -
16/10:00pm 22.1 SE 13 17 1016.4 - 0.0 - - - - - - -
16/09:30pm 22.2 SE 13 16 1016.4 - 0.0 - - - - - - -
16/09:00pm 22.2 SE 14 16 1015.9 - 0.0 - - - - - - -
16/08:30pm 22.3 SE 13 16 1016.0 - 0.0 - - - - - - -
16/08:00pm 22.2 SE 17 19 1015.6 - 0.0 - - - - - - -
16/07:30pm 22.2 SE 15 17 1015.4 - 0.0 - - - - - - -
16/07:00pm 22.2 SE 16 19 1014.9 - 0.0 - - - - - - -
16/06:30pm 22.0 ESE 14 17 1014.6 - 0.0 - - - - - - -
16/06:00pm 21.9 SE 13 15 1014.0 - 0.0 - - - - - - -
16/05:30pm 21.8 SE 14 16 1014.2 - 0.0 - - - - - - -
16/05:00pm 22.0 SE 14 17 1013.9 - 0.0 - - - - - - -
16/04:30pm 22.4 ESE 11 13 1013.8 - 0.0 - - - - - - -
16/04:00pm 22.5 SE 13 15 1013.6 - 0.0 - - - - - - -
16/03:30pm 22.9 SE 13 16 1013.6 - 0.0 - - - - - - -
16/03:00pm 22.7 SE 14 16 1013.2 - 0.0 - - - - - - -
16/02:30pm 23.1 SE 13 16 1013.7 - 0.0 - - - - - - -
16/02:00pm 22.9 SE 15 18 1014.0 - 0.0 - - - - - - -
16/01:30pm 23.1 SSE 14 16 1014.1 - 0.0 - - - - - - -
16/01:00pm 23.2 SSE 14 16 1014.3 - 0.0 - - - - - - -
16/12:30pm 23.0 SSE 15 19 1014.8 - 0.0 - - - - - - -
16/12:00pm 23.1 SSE 13 16 1014.8 - 0.0 - - - - - - -
16/11:30am 22.9 S 13 16 1015.5 - 0.0 - - - - - - -
16/11:00am 22.8 S 13 16 1015.9 - 0.0 - - - - - - -
16/10:30am 22.5 SSE 13 17 1016.3 - 0.0 - - - - - - -
16/10:00am 22.0 S 14 19 1016.6 - 0.0 - - - - - - -
16/09:30am 21.8 S 16 19 1016.7 - 0.0 - - - - - - -
16/09:00am 21.6 S 17 21 1016.2 - 0.2 - - - - - - -
16/08:30am 21.2 S 17 22 1016.4 - 0.2 - - - - - - -
16/08:00am 21.1 S 18 22 1016.1 - 0.2 - - - - - - -
16/07:30am 20.8 S 19 23 1015.6 - 0.2 - - - - - - -
16/07:00am 20.6 S 19 23 1015.1 - 0.2 - - - - - - -
16/06:30am 20.2 S 18 23 1014.9 - 0.2 - - - - - - -
16/06:00am 20.3 S 18 23 1014.3 - 0.2 - - - - - - -
16/05:30am 20.1 S 17 21 1014.4 - 0.2 - - - - - - -
16/05:00am 20.2 S 17 22 1014.2 - 0.2 - - - - - - -
16/04:30am 20.1 S 17 22 1014.0 - 0.2 - - - - - - -
16/04:00am 19.8 S 16 20 1014.1 - 0.2 - - - - - - -
16/03:30am 19.8 S 16 21 1014.0 - 0.2 - - - - - - -
16/03:00am 19.6 S 17 20 1013.6 - 0.2 - - - - - - -
16/02:30am 19.7 S 17 21 1014.1 - 0.2 - - - - - - -
16/02:00am 19.7 S 16 20 1014.4 - 0.2 - - - - - - -
16/01:30am 20.1 S 14 18 1014.7 - 0.2 - - - - - - -
16/01:00am 20.4 S 18 22 1014.7 - 0.2 - - - - - - -
16/12:30am 20.9 S 19 24 1014.9 - 0.2 - - - - - - -
16/12:00am 21.2 SSE 20 26 1014.7 - 0.2 - - - - - - -
 
Date/Time
EST
Temp

°C
Wind Pressure Rain
since 9am
mm
Weather Cloud Vis
km
Sea
Height
m
Swell
Dir
 
Speed
knots
Gust
knots
hPa Trend Height
m
Period
s
Dir
15/11:30pm 21.4 SSE 23 28 1014.9 - 0.2 - - - - - - -
15/11:00pm 21.8 SSE 24 29 1015.2 - 0.2 - - - - - - -
15/10:30pm 21.8 SSE 25 29 1015.1 - 0.2 - - - - - - -
15/10:00pm 21.8 SSE 25 30 1015.0 - 0.2 - - - - - - -
15/09:30pm 21.9 SSE 25 31 1015.0 - 0.2 - - - - - - -
15/09:00pm 21.9 SSE 26 31 1014.5 - 0.2 - - - - - - -
15/08:30pm 22.0 SSE 25 30 1015.1 - 0.2 - - - - - - -
15/08:00pm 22.0 SSE 27 30 1014.9 - 0.2 - - - - - - -
15/07:30pm 22.3 SSE 25 30 1014.8 - 0.2 - - - - - - -
15/07:00pm 22.2 SSE 25 30 1014.5 - 0.2 - - - - - - -
15/06:30pm 22.1 SSE 27 33 1014.2 - 0.2 - - - - - - -
15/06:00pm 21.9 SSE 26 31 1013.6 - 0.2 - - - - - - -
15/05:30pm 22.0 SSE 26 31 1013.6 - 0.2 - - - - - - -
15/05:00pm 22.0 SSE 27 31 1013.4 - 0.2 - - - - - - -
15/04:30pm 22.1 SSE 28 33 1013.1 - 0.2 - - - - - - -
15/04:00pm 22.5 SSE 25 31 1013.1 - 0.2 - - - - - - -
15/03:30pm 22.3 SSE 29 36 1012.9 - 0.2 - - - - - - -
15/03:00pm 22.2 SSE 27 37 1012.6 - 0.2 - - - - - - -
15/02:30pm 20.8 S 25 35 1013.1 - 0.2 - - - - - - -
15/02:18pm 21.8 SSE 26 36 1012.7 - 0.2 - - - - - - -
15/02:00pm 22.6 SSE 25 32 1012.7 - 0.2 - - - - - - -
15/01:30pm 22.8 SSE 26 31 1012.9 - 0.2 - - - - - - -
15/01:00pm 22.1 SSE 27 34 1012.9 - 0.2 - - - - - - -
15/12:30pm 21.4 S 28 37 1012.9 - 0.2 - - - - - - -
15/12:20pm 21.4 SSE 24 34 1013.1 - 0.0 - - - - - - -
15/12:00pm 22.8 SSE 25 32 1013.1 - 0.0 - - - - - - -
15/11:30am 22.3 SSE 26 35 1013.6 - 0.0 - - - - - - -
15/11:00am 22.1 SSE 28 35 1013.6 - 0.0 - - - - - - -
15/10:30am 22.2 S 29 35 - - 0.0 - - - - - - -
15/10:14am 22.2 SSE 29 39 1013.9 - 0.0 - - - - - - -
15/10:00am 22.0 SSE 30 38 1013.8 - 0.0 - - - - - - -
15/09:30am 21.7 S 30 36 1014.2 - 0.0 - - - - - - -
15/09:00am 21.8 S 28 35 1013.8 - 0.2 - - - - - - -
15/08:30am 21.5 S 28 37 1014.1 - 0.2 - - - - - - -
15/08:27am 21.2 S 27 37 1013.9 - 0.2 - - - - - - -
15/08:00am 20.9 S 26 34 1014.3 - 0.2 - - - - - - -
15/07:30am 20.8 S 25 32 1013.8 - 0.2 - - - - - - -

Other Formats:

Comma delimited format used in spreadsheet applications
http://www.bom.gov.au/fwo/IDQ60701/IDQ60701.94584.axf

JavaScript Object Notation format (JSON) in row-major order
http://www.bom.gov.au/fwo/IDQ60701/IDQ60701.94584.json